createdAt,value
2017-11-11T00:00:58.837Z,5.70
2017-11-11T00:03:27.629Z,5.64
2017-11-11T00:05:56.345Z,5.71
2017-11-11T00:08:25.243Z,6.07
2017-11-11T00:10:54.243Z,5.98
2017-11-11T00:13:23.071Z,5.72
2017-11-11T00:15:52.204Z,5.44
2017-11-11T00:18:22.328Z,5.34
2017-11-11T00:20:52.156Z,5.49
2017-11-11T00:23:22.178Z,5.27
2017-11-11T00:25:51.948Z,5.29
2017-11-11T00:28:20.738Z,5.60
2017-11-11T00:30:49.488Z,5.73
2017-11-11T00:33:18.338Z,6.07
2017-11-11T00:35:48.180Z,5.47
2017-11-11T00:38:16.829Z,5.13
2017-11-11T00:40:45.539Z,5.41
2017-11-11T00:43:15.171Z,5.98
2017-11-11T00:45:44.029Z,5.52
2017-11-11T00:48:12.770Z,5.60
2017-11-11T00:50:41.529Z,5.31
2017-11-11T00:53:11.001Z,5.26
2017-11-11T00:55:39.746Z,5.69
2017-11-11T00:58:08.489Z,5.30
2017-11-11T01:00:37.451Z,4.96
2017-11-11T01:03:06.257Z,5.65
2017-11-11T01:05:35.022Z,5.47
2017-11-11T01:08:03.854Z,5.21
2017-11-11T01:10:32.771Z,5.27
2017-11-11T01:13:01.932Z,5.52
2017-11-11T01:15:31.440Z,5.16
2017-11-11T01:18:00.323Z,5.04
2017-11-11T01:20:29.791Z,5.06
2017-11-11T01:22:58.452Z,5.21
2017-11-11T01:25:27.260Z,5.41
2017-11-11T01:27:56.092Z,5.07
2017-11-11T01:30:24.792Z,5.04
2017-11-11T01:32:53.601Z,5.25
2017-11-11T01:35:23.068Z,4.95
2017-11-11T01:37:54.024Z,5.04
2017-11-11T01:40:22.973Z,5.38
2017-11-11T01:42:53.567Z,4.93
2017-11-11T01:45:23.136Z,4.93
2017-11-11T01:47:53.736Z,4.81
2017-11-11T01:50:23.441Z,5.06
2017-11-11T01:52:52.213Z,4.73
2017-11-11T01:55:21.067Z,4.78
2017-11-11T01:57:50.513Z,4.76
2017-11-11T02:00:19.264Z,4.89
2017-11-11T02:02:48.049Z,5.04
2017-11-11T02:05:16.825Z,5.38
2017-11-11T02:07:45.561Z,5.26
2017-11-11T02:10:14.336Z,4.79
2017-11-11T02:12:43.114Z,5.45
2017-11-11T02:15:11.893Z,4.89
2017-11-11T02:17:40.860Z,4.78
2017-11-11T02:20:09.814Z,5.21
2017-11-11T02:22:38.715Z,4.98
2017-11-11T02:25:08.209Z,4.82
2017-11-11T02:27:37.026Z,4.76
2017-11-11T02:30:06.876Z,4.79
2017-11-11T02:32:35.681Z,4.64
2017-11-11T02:35:04.425Z,5.03
2017-11-11T02:37:34.075Z,4.70
2017-11-11T02:40:02.887Z,4.70
2017-11-11T02:42:31.715Z,4.39
2017-11-11T02:45:00.393Z,4.61
2017-11-11T02:47:29.278Z,4.74
2017-11-11T02:49:58.060Z,5.19
2017-11-11T02:52:26.871Z,5.18
2017-11-11T02:54:55.593Z,4.85
2017-11-11T02:57:26.171Z,4.49
2017-11-11T02:59:55.563Z,4.71
2017-11-11T03:02:25.508Z,4.65
2017-11-11T03:04:54.273Z,4.49
2017-11-11T03:07:23.015Z,4.61
2017-11-11T03:09:52.574Z,4.78
2017-11-11T03:12:21.535Z,4.43
2017-11-11T03:14:50.365Z,4.77
2017-11-11T03:17:19.054Z,5.03
2017-11-11T03:19:48.247Z,5.16
2017-11-11T03:22:17.127Z,4.88
2017-11-11T03:24:46.407Z,4.92
2017-11-11T03:27:15.188Z,4.79
2017-11-11T03:29:45.037Z,4.91
2017-11-11T03:32:13.797Z,5.26
2017-11-11T03:34:42.708Z,4.72
2017-11-11T03:37:11.419Z,5.18
2017-11-11T03:39:40.206Z,4.81
2017-11-11T03:42:09.247Z,5.07
2017-11-11T03:44:38.712Z,4.98
2017-11-11T03:47:08.146Z,4.68
2017-11-11T03:49:37.243Z,5.03
2017-11-11T03:52:06.027Z,5.31
2017-11-11T03:54:34.836Z,5.04
2017-11-11T03:57:03.902Z,5.01
2017-11-11T03:59:33.533Z,5.11
2017-11-11T04:02:02.419Z,5.04
2017-11-11T04:04:32.048Z,5.29
2017-11-11T04:07:00.738Z,4.75
2017-11-11T04:09:30.367Z,4.81
2017-11-11T04:11:59.180Z,5.33
2017-11-11T04:14:28.057Z,4.88
2017-11-11T04:16:58.543Z,4.80
2017-11-11T04:19:28.787Z,4.23
2017-11-11T04:21:57.797Z,4.49
2017-11-11T04:24:27.248Z,4.86
2017-11-11T04:26:56.892Z,4.67
2017-11-11T04:29:25.950Z,4.82
2017-11-11T04:31:55.342Z,4.50
2017-11-11T04:34:24.234Z,5.07
2017-11-11T04:36:53.064Z,4.90
2017-11-11T04:39:22.659Z,4.61
2017-11-11T04:41:51.598Z,4.62
2017-11-11T04:44:21.163Z,4.86
2017-11-11T04:46:50.022Z,4.59
2017-11-11T04:49:19.039Z,4.95
2017-11-11T04:51:47.873Z,5.47
2017-11-11T04:54:16.614Z,5.03
2017-11-11T04:56:45.668Z,5.29
2017-11-11T04:59:14.550Z,4.90
2017-11-11T05:01:43.252Z,4.83
2017-11-11T05:04:12.294Z,5.20
2017-11-11T05:06:42.070Z,5.30
2017-11-11T05:09:11.010Z,5.11
2017-11-11T05:11:39.701Z,4.36
2017-11-11T05:14:08.603Z,4.57
2017-11-11T05:16:37.495Z,4.96
2017-11-11T05:19:06.321Z,4.78
2017-11-11T05:21:35.131Z,4.93
2017-11-11T05:24:03.905Z,4.80
2017-11-11T05:26:34.023Z,5.13
2017-11-11T05:29:03.087Z,5.41
2017-11-11T05:31:32.150Z,5.50
2017-11-11T05:34:00.974Z,5.34
2017-11-11T05:36:30.560Z,5.17
2017-11-11T05:38:59.899Z,5.29
2017-11-11T05:41:29.718Z,5.32
2017-11-11T05:43:58.661Z,5.19
2017-11-11T05:46:28.308Z,5.52
2017-11-11T05:48:57.185Z,5.04
2017-11-11T05:51:26.057Z,5.54
2017-11-11T05:53:54.866Z,5.43
2017-11-11T05:56:23.609Z,5.73
2017-11-11T05:58:52.447Z,5.68
2017-11-11T06:01:21.984Z,5.69
2017-11-11T06:03:51.681Z,5.77
2017-11-11T06:06:20.502Z,6.12
2017-11-11T06:08:49.660Z,5.67
2017-11-11T06:11:19.249Z,5.74
2017-11-11T06:13:48.036Z,5.92
2017-11-11T06:16:17.578Z,5.79
2017-11-11T06:18:46.368Z,6.44
2017-11-11T06:21:15.113Z,6.19
2017-11-11T06:23:44.003Z,5.96
2017-11-11T06:26:12.709Z,6.30
2017-11-11T06:28:41.420Z,6.58
2017-11-11T06:31:10.127Z,6.32
2017-11-11T06:33:39.839Z,6.84
2017-11-11T06:36:09.458Z,6.23
2017-11-11T06:38:38.229Z,6.36
2017-11-11T06:41:07.417Z,6.57
2017-11-11T06:43:36.316Z,6.17
2017-11-11T06:46:05.075Z,6.11
2017-11-11T06:48:33.914Z,6.50
2017-11-11T06:51:02.638Z,6.93
2017-11-11T06:53:31.366Z,6.52
2017-11-11T06:56:01.150Z,6.63
2017-11-11T06:58:31.206Z,6.75
2017-11-11T07:01:01.065Z,6.95
2017-11-11T07:03:29.990Z,6.71
2017-11-11T07:05:59.482Z,6.58
2017-11-11T07:08:28.399Z,6.72
2017-11-11T07:10:57.305Z,6.61
2017-11-11T07:13:26.030Z,6.00
2017-11-11T07:15:59.338Z,6.40
2017-11-11T07:18:28.115Z,6.39
2017-11-11T07:20:57.717Z,6.75
2017-11-11T07:23:26.448Z,6.37
2017-11-11T07:25:55.386Z,7.26
2017-11-11T07:28:25.251Z,7.31
2017-11-11T07:30:54.333Z,6.92
2017-11-11T07:33:23.480Z,6.34
2017-11-11T07:35:53.092Z,6.64
2017-11-11T07:38:21.968Z,7.41
2017-11-11T07:40:50.808Z,7.59
2017-11-11T07:43:19.696Z,7.76
2017-11-11T07:45:48.662Z,8.02
2017-11-11T07:48:18.120Z,7.82
2017-11-11T07:50:46.867Z,7.94
2017-11-11T07:53:15.706Z,7.94
2017-11-11T07:55:44.622Z,7.48
2017-11-11T07:58:13.782Z,7.51
2017-11-11T08:00:43.677Z,7.82
2017-11-11T08:03:12.452Z,7.92
2017-11-11T08:05:41.221Z,7.92
2017-11-11T08:08:10.024Z,7.24
2017-11-11T08:10:38.742Z,7.84
2017-11-11T08:13:07.468Z,7.91
2017-11-11T08:15:36.277Z,8.16
2017-11-11T08:18:05.059Z,8.92
2017-11-11T08:20:33.849Z,8.46
2017-11-11T08:23:02.784Z,7.85
2017-11-11T08:25:32.650Z,8.72
2017-11-11T08:28:02.730Z,8.74
2017-11-11T08:30:32.881Z,8.54
2017-11-11T08:33:02.708Z,8.52
2017-11-11T08:35:31.958Z,9.13
2017-11-11T08:38:01.716Z,9.11
2017-11-11T08:40:30.540Z,9.43
2017-11-11T08:42:59.287Z,8.92
2017-11-11T08:45:28.055Z,8.34
2017-11-11T08:47:56.970Z,8.88
2017-11-11T08:50:26.221Z,8.92
2017-11-11T08:52:55.043Z,8.89
2017-11-11T08:55:24.947Z,9.20
2017-11-11T08:57:54.205Z,9.63
2017-11-11T09:00:26.198Z,8.99
2017-11-11T09:02:55.047Z,9.46
2017-11-11T09:05:23.851Z,9.07
2017-11-11T09:07:52.732Z,9.12
2017-11-11T09:10:21.478Z,9.09
2017-11-11T09:12:50.486Z,9.35
2017-11-11T09:15:19.401Z,9.46
2017-11-11T09:17:48.401Z,9.20
2017-11-11T09:20:17.989Z,9.53
2017-11-11T09:22:50.880Z,10.51
2017-11-11T09:25:19.701Z,9.86
2017-11-11T09:27:48.502Z,10.72
2017-11-11T09:30:17.284Z,10.69
2017-11-11T09:32:46.161Z,10.40
2017-11-11T09:35:15.904Z,10.73
2017-11-11T09:37:46.364Z,10.72
2017-11-11T19:38:27.738Z,6.83
2017-11-11T19:40:56.834Z,7.39
2017-11-11T19:43:26.615Z,7.71
2017-11-11T19:45:55.724Z,7.85
2017-11-11T19:48:25.240Z,7.67
2017-11-11T19:50:54.333Z,7.92
2017-11-11T19:53:25.029Z,7.47
2017-11-11T19:55:54.484Z,7.64
2017-11-11T19:58:24.978Z,7.44
2017-11-11T20:00:54.388Z,7.66
2017-11-11T20:03:23.164Z,7.64
2017-11-11T20:05:52.234Z,7.44
2017-11-11T20:08:21.009Z,7.57
2017-11-11T20:10:49.732Z,7.57
2017-11-11T20:13:19.379Z,7.80
2017-11-11T20:15:48.180Z,8.04
2017-11-11T20:18:16.963Z,8.16
2017-11-11T20:20:45.616Z,7.88
2017-11-11T20:23:14.407Z,6.96
2017-11-11T20:25:44.006Z,6.87
2017-11-11T20:28:12.746Z,6.77
2017-11-11T20:30:41.507Z,6.76
2017-11-11T20:33:11.076Z,6.74
2017-11-11T20:35:39.784Z,7.06
2017-11-11T20:38:08.669Z,7.31
2017-11-11T20:40:37.438Z,6.81
2017-11-11T20:43:06.407Z,6.93
2017-11-11T20:45:35.488Z,6.96
2017-11-11T20:48:04.396Z,7.07
2017-11-11T20:50:33.378Z,6.68
2017-11-11T20:53:03.761Z,7.03
2017-11-11T20:55:32.507Z,7.09
2017-11-11T20:58:01.337Z,6.77
2017-11-11T21:00:30.918Z,7.04
2017-11-11T21:02:59.948Z,6.99
2017-11-11T21:05:28.809Z,7.11
2017-11-11T21:07:58.154Z,7.47
2017-11-11T21:10:27.004Z,6.73
2017-11-11T21:12:56.585Z,6.70
2017-11-11T21:15:25.788Z,7.12
2017-11-11T21:17:55.087Z,7.30
2017-11-11T21:20:25.921Z,7.04
2017-11-11T21:22:55.418Z,7.26
2017-11-11T21:25:25.349Z,6.71
2017-11-11T21:27:56.102Z,6.95
2017-11-11T21:30:25.348Z,6.97
2017-11-11T21:32:56.494Z,6.96
2017-11-11T21:35:25.736Z,7.61
2017-11-11T21:37:55.410Z,7.44
2017-11-11T21:40:25.521Z,7.16
2017-11-11T21:42:55.166Z,7.22
2017-11-11T21:45:24.093Z,6.71
2017-11-11T21:47:53.133Z,7.05
2017-11-11T21:50:22.073Z,7.78
2017-11-11T21:52:50.867Z,6.86
2017-11-11T21:55:19.648Z,7.11
2017-11-11T21:57:48.541Z,6.58
2017-11-11T22:00:17.471Z,6.60
2017-11-11T22:02:46.991Z,6.85
2017-11-11T22:05:16.678Z,6.96
2017-11-11T22:07:45.728Z,6.82
2017-11-11T22:10:14.765Z,6.60
2017-11-11T22:12:43.875Z,6.65
2017-11-11T22:15:12.830Z,6.81
2017-11-11T22:17:41.717Z,6.42
2017-11-11T22:20:10.725Z,6.38
2017-11-11T22:22:39.949Z,6.60
2017-11-11T22:25:09.603Z,6.40
2017-11-11T22:27:38.576Z,6.36
2017-11-11T22:30:07.550Z,6.20
2017-11-11T22:32:37.411Z,6.32
2017-11-11T22:35:06.239Z,6.72
2017-11-11T22:37:35.985Z,6.11
2017-11-11T22:40:05.425Z,6.13
2017-11-11T22:42:34.249Z,6.15
2017-11-11T22:45:03.380Z,5.95
2017-11-11T22:47:32.199Z,5.81
2017-11-11T22:50:02.603Z,5.83
2017-11-11T22:52:31.412Z,6.10
2017-11-11T22:55:00.437Z,5.75
2017-11-11T22:57:29.297Z,5.88
2017-11-11T22:59:58.190Z,5.70
2017-11-11T23:02:27.646Z,6.07
2017-11-11T23:04:57.264Z,5.78
2017-11-11T23:07:26.184Z,5.37
2017-11-11T23:09:55.800Z,5.40
2017-11-11T23:12:25.548Z,5.68
2017-11-11T23:14:54.277Z,5.94
2017-11-11T23:17:24.045Z,5.96
2017-11-11T23:19:52.889Z,5.73
2017-11-11T23:22:21.975Z,5.77
2017-11-11T23:27:36.050Z,5.36
2017-11-11T23:30:05.630Z,5.49
2017-11-11T23:32:34.438Z,5.67
2017-11-11T23:35:03.215Z,5.68
2017-11-11T23:37:31.955Z,5.47
2017-11-11T23:40:00.796Z,5.34
2017-11-11T23:42:30.315Z,5.50
2017-11-11T23:44:59.476Z,5.52
2017-11-11T23:47:28.959Z,5.94
2017-11-11T23:49:58.879Z,5.75
2017-11-11T23:52:27.760Z,5.64
2017-11-11T23:54:56.939Z,5.89
2017-11-11T23:57:26.071Z,6.19
2017-11-11T23:59:55.693Z,6.57
